Time;durP1;ratioP1;P1;durP2;ratioP2;P2;SDS_P1;SDS_P2;PMS_P1;PMS_P2;Temp;Humidity;BMP_temperature;BMP_pressure;BME280_temperature;BME280_humidity;BME280_pressure;Samples;Min_cycle;Max_cycle;Signal;HPM_P1;HPM_P2
2022/05/14 00:00:24;;;;;;;38.22;7.13;;;;;;;12.48;84.39;101962.28;5046029;28;20053;-82
2022/05/14 00:02:50;;;;;;;45.05;6.38;;;;;;;12.44;84.58;101951.00;5054468;28;20028;-81
2022/05/14 00:05:18;;;;;;;34.55;6.22;;;;;;;12.48;84.67;101949.66;5052849;28;20022;-82
2022/05/14 00:07:45;;;;;;;32.42;5.05;;;;;;;12.50;84.70;101954.88;5054379;28;20044;-80
2022/05/14 00:10:11;;;;;;;36.88;6.03;;;;;;;12.50;84.64;101944.06;5053874;28;20037;-81
2022/05/14 00:15:20;;;;;;;21.90;4.57;;;;;;;12.47;84.81;101939.03;5039331;28;20039;-82
2022/05/14 00:17:47;;;;;;;35.58;5.35;;;;;;;12.44;84.93;101945.59;5046454;28;20326;-82
2022/05/14 00:20:13;;;;;;;36.75;5.63;;;;;;;12.48;85.08;101952.38;5044625;28;20041;-82
2022/05/14 00:22:38;;;;;;;44.85;5.97;;;;;;;12.46;85.04;101951.69;5044970;28;20402;-81
2022/05/14 00:25:04;;;;;;;41.08;5.72;;;;;;;12.50;85.09;101952.19;5048230;28;20105;-83
2022/05/14 00:27:29;;;;;;;32.95;5.32;;;;;;;12.51;85.01;101951.19;5051234;28;20048;-81
2022/05/14 00:29:55;;;;;;;41.63;6.35;;;;;;;12.52;85.05;101942.06;5052042;28;20033;-83
2022/05/14 00:32:21;;;;;;;41.75;6.03;;;;;;;12.54;84.70;101944.59;5050454;28;20017;-81
2022/05/14 00:34:46;;;;;;;36.75;5.88;;;;;;;12.51;84.78;101952.03;5046138;28;20071;-81
2022/05/14 00:37:12;;;;;;;35.40;5.75;;;;;;;12.52;84.83;101936.66;5045014;28;20132;-80
2022/05/14 00:39:38;;;;;;;39.80;5.10;;;;;;;12.52;84.77;101940.19;5054547;28;20095;-82
2022/05/14 00:42:04;;;;;;;41.75;5.28;;;;;;;12.55;84.67;101930.09;5053942;28;20029;-82
2022/05/14 00:44:29;;;;;;;42.85;5.07;;;;;;;12.55;84.46;101938.19;5036349;28;20053;-79
2022/05/14 00:47:09;;;;;;;40.50;5.93;;;;;;;12.54;84.60;101933.81;5052436;28;20362;-80
2022/05/14 00:49:34;;;;;;;41.58;5.95;;;;;;;12.53;84.70;101938.34;5054306;28;20033;-79
2022/05/14 00:52:00;;;;;;;31.25;5.28;;;;;;;12.54;84.63;101933.81;5055883;28;20030;-80
2022/05/14 00:54:32;;;;;;;28.90;5.28;;;;;;;12.54;84.74;101933.81;5056764;28;20013;-80
2022/05/14 00:57:01;;;;;;;34.17;6.32;;;;;;;12.55;84.61;101935.47;5059054;28;20073;-80
2022/05/14 00:59:27;;;;;;;34.90;5.63;;;;;;;12.54;84.86;101928.41;5059299;28;20146;-82
2022/05/14 01:01:53;;;;;;;36.05;5.68;;;;;;;12.54;84.57;101926.53;5059277;28;20033;-80
2022/05/14 01:04:20;;;;;;;51.15;6.20;;;;;;;12.56;84.54;101937.16;5059165;28;20092;-81
2022/05/14 01:06:49;;;;;;;41.30;6.68;;;;;;;12.55;84.74;101946.28;5057914;28;20080;-80
2022/05/14 01:09:15;;;;;;;37.88;6.03;;;;;;;12.54;84.82;101944.59;5058504;28;20052;-79
2022/05/14 01:11:41;;;;;;;31.30;5.25;;;;;;;12.54;84.66;101942.75;5058016;28;20025;-81
2022/05/14 01:14:06;;;;;;;34.30;6.55;;;;;;;12.48;84.74;101936.16;5042039;28;20021;-80
2022/05/14 01:16:31;;;;;;;30.73;4.95;;;;;;;12.47;85.02;101933.63;5059241;28;20038;-80
2022/05/14 01:18:57;;;;;;;37.08;5.88;;;;;;;12.45;85.32;101931.09;5058395;28;20022;-79
2022/05/14 01:21:32;;;;;;;42.25;6.05;;;;;;;12.42;85.50;101936.81;5058286;28;20023;-80
2022/05/14 01:26:41;;;;;;;40.67;5.65;;;;;;;12.36;85.88;101942.06;5057895;28;20035;-80
2022/05/14 01:29:22;;;;;;;34.70;5.43;;;;;;;12.30;86.30;101940.88;5057524;28;20033;-80
2022/05/14 01:31:49;;;;;;;41.85;5.32;;;;;;;12.32;86.38;101946.09;5058374;28;20017;-79
2022/05/14 01:34:24;;;;;;;26.70;5.03;;;;;;;12.33;86.50;101943.22;5058067;28;20024;-80
2022/05/14 01:36:50;;;;;;;44.80;7.15;;;;;;;12.34;86.49;101944.91;5056625;28;20304;-79
2022/05/14 01:39:16;;;;;;;38.40;5.97;;;;;;;12.34;86.52;101942.22;5058863;28;20074;-79
2022/05/14 01:41:41;;;;;;;39.75;5.97;;;;;;;12.33;86.55;101942.38;5058599;28;20013;-78
2022/05/14 01:44:07;;;;;;;43.22;6.13;;;;;;;12.30;86.61;101943.56;5057495;28;20059;-80
2022/05/14 01:46:33;;;;;;;43.75;6.00;;;;;;;12.28;86.73;101950.97;5058297;28;20031;-79
2022/05/14 01:48:58;;;;;;;32.58;5.28;;;;;;;12.26;86.77;101953.00;5057707;28;20025;-79
2022/05/14 01:51:24;;;;;;;43.05;7.10;;;;;;;12.24;86.92;101955.00;5058026;28;20037;-78
2022/05/14 01:53:49;;;;;;;55.45;8.35;;;;;;;12.19;87.10;101951.97;5058085;28;20021;-78
2022/05/14 01:56:15;;;;;;;34.78;6.22;;;;;;;12.17;87.29;101960.25;5058845;28;20077;-79
2022/05/14 01:58:40;;;;;;;35.17;5.43;;;;;;;12.16;87.36;101955.00;5057337;28;20033;-79
2022/05/14 02:01:21;;;;;;;32.85;5.15;;;;;;;12.13;87.72;101960.72;5057649;28;20017;-79
2022/05/14 02:03:49;;;;;;;41.80;6.60;;;;;;;12.11;87.82;101957.34;5057267;28;20021;-80
2022/05/14 02:06:14;;;;;;;;;;;;;;;12.06;87.92;101953.31;5058075;28;20014;-79
2022/05/14 02:08:41;;;;;;;36.78;6.55;;;;;;;12.03;88.04;101953.63;5054816;28;19947;-82
2022/05/14 02:11:08;;;;;;;28.73;6.07;;;;;;;12.01;88.21;101955.66;5066541;28;20089;-82
2022/05/14 02:13:34;;;;;;;34.20;6.13;;;;;;;12.01;88.52;101961.03;5053910;28;20037;-82
2022/05/14 02:15:59;;;;;;;46.90;7.07;;;;;;;11.96;88.68;101957.16;5055074;28;20037;-81
2022/05/14 02:18:25;;;;;;;36.40;6.03;;;;;;;11.96;88.83;101963.38;5057311;28;20041;-82
2022/05/14 02:20:50;;;;;;;41.33;5.45;;;;;;;11.95;88.92;101961.66;5055641;28;20037;-82
2022/05/14 02:23:15;;;;;;;38.17;7.05;;;;;;;11.94;88.89;101960.00;5057557;28;20032;-81
2022/05/14 02:25:41;;;;;;;41.38;6.57;;;;;;;11.95;88.80;101960.84;5056869;28;20059;-82
2022/05/14 02:28:07;;;;;;;28.23;5.60;;;;;;;11.93;88.99;101963.72;5055008;28;20045;-84
2022/05/14 02:30:32;;;;;;;34.47;6.03;;;;;;;11.92;89.07;101967.41;5054121;28;20044;-82
2022/05/14 02:32:57;;;;;;;37.50;6.28;;;;;;;11.92;89.27;101971.97;5053964;28;20044;-80
2022/05/14 02:35:23;;;;;;;52.30;6.80;;;;;;;11.92;89.28;101964.72;5091119;22;20397;-78
2022/05/14 02:37:48;;;;;;;32.90;5.82;;;;;;;11.91;89.03;101971.13;5031822;28;20022;-78
2022/05/14 02:40:14;;;;;;;43.88;6.32;;;;;;;11.91;88.86;101971.13;5031891;28;20033;-78
2022/05/14 02:42:39;;;;;;;32.75;6.00;;;;;;;11.90;88.90;101964.03;5033344;28;20037;-78
2022/05/14 02:45:05;;;;;;;42.08;6.07;;;;;;;11.91;89.02;101971.13;5029044;28;20059;-78
2022/05/14 02:47:31;;;;;;;31.63;6.00;;;;;;;11.93;88.90;101970.94;5032392;28;20037;-79
2022/05/14 02:49:56;;;;;;;42.50;5.53;;;;;;;11.93;88.66;101979.03;5031695;28;20022;-78
2022/05/14 02:52:23;;;;;;;27.23;5.10;;;;;;;11.93;88.54;101985.28;5014085;28;20040;-79
2022/05/14 02:54:49;;;;;;;41.53;6.20;;;;;;;11.93;88.80;101981.72;5029232;28;20029;-77
2022/05/14 02:57:15;;;;;;;43.65;6.85;;;;;;;11.93;88.82;101979.91;5013408;28;20036;-78
2022/05/14 02:59:40;;;;;;;29.60;5.90;;;;;;;11.91;88.59;101975.69;5031341;28;20136;-80
2022/05/14 03:02:06;;;;;;;35.42;6.13;;;;;;;11.91;88.69;101984.59;5031618;28;20109;-79
2022/05/14 03:04:37;;;;;;;36.95;6.03;;;;;;;11.90;88.78;101991.03;5029363;28;20030;-79
2022/05/14 03:07:07;;;;;;;31.02;5.45;;;;;;;11.91;88.78;101990.00;5030216;28;20552;-78
2022/05/14 03:09:34;;;;;;;33.38;5.93;;;;;;;11.91;88.63;101981.91;5026983;28;20405;-79
2022/05/14 03:11:59;;;;;;;32.08;5.55;;;;;;;11.91;88.49;101984.59;5031494;28;20041;-78
2022/05/14 03:14:25;;;;;;;32.03;5.75;;;;;;;11.91;88.33;101981.91;5029124;28;20061;-78
2022/05/14 03:16:50;;;;;;;39.78;6.15;;;;;;;11.92;88.31;101986.28;5030957;28;20034;-78
2022/05/14 03:19:16;;;;;;;31.35;5.95;;;;;;;11.91;88.39;101981.91;5046255;28;20333;-79
2022/05/14 03:21:42;;;;;;;28.55;5.65;;;;;;;11.90;88.28;101987.44;5030289;28;20446;-79
2022/05/14 03:24:08;;;;;;;26.25;5.38;;;;;;;11.88;88.34;101976.84;5030346;28;20026;-79
2022/05/14 03:26:33;;;;;;;33.97;5.18;;;;;;;11.82;88.36;101980.13;5029809;28;20108;-79
2022/05/14 03:28:59;;;;;;;31.40;6.40;;;;;;;11.80;88.77;101980.31;5019620;28;20112;-79
2022/05/14 03:31:25;;;;;;;29.13;5.93;;;;;;;11.78;88.84;101981.50;5029428;28;20043;-78
2022/05/14 03:33:50;;;;;;;42.50;5.90;;;;;;;11.74;88.88;101974.72;5030581;28;20058;-81
2022/05/14 03:36:16;;;;;;;36.85;5.90;;;;;;;11.75;88.97;101973.72;5030186;28;20481;-78
2022/05/14 03:38:41;;;;;;;33.10;5.57;;;;;;;11.75;88.80;101974.56;5028964;28;20053;-77
2022/05/14 03:41:07;;;;;;;27.67;5.40;;;;;;;11.74;89.17;101977.41;5030782;28;20500;-78
2022/05/14 03:43:33;;;;;;;34.13;5.55;;;;;;;11.71;88.85;101975.03;5018924;28;20068;-79
2022/05/14 03:45:59;;;;;;;28.67;5.57;;;;;;;11.69;89.14;101977.06;5029984;28;20113;-80
2022/05/14 03:48:25;;;;;;;33.03;7.20;;;;;;;11.68;88.80;101978.06;5029105;28;20110;-79
2022/05/14 03:50:50;;;;;;;41.90;6.68;;;;;;;11.66;89.01;101970.13;5029633;28;20393;-79
2022/05/14 03:53:16;;;;;;;30.75;5.97;;;;;;;11.65;89.14;101977.38;5030634;28;20032;-79
2022/05/14 03:55:41;;;;;;;34.92;6.38;;;;;;;11.65;89.17;101971.97;5030178;28;20234;-79
2022/05/14 03:58:06;;;;;;;39.50;5.13;;;;;;;11.64;89.08;101983.78;5028620;28;20191;-77
2022/05/14 04:00:32;;;;;;;32.20;6.07;;;;;;;11.61;89.00;101984.13;5030101;28;20499;-79
2022/05/14 04:02:57;;;;;;;35.30;5.53;;;;;;;11.62;89.24;101977.69;5026310;28;20060;-80
2022/05/14 04:05:23;;;;;;;27.23;5.07;;;;;;;11.60;89.17;101978.88;5031573;28;20026;-80
2022/05/14 04:07:48;;;;;;;38.72;5.38;;;;;;;11.61;89.18;101983.25;5029519;28;20041;-77
2022/05/14 04:10:16;;;;;;;19.98;5.00;;;;;;;11.61;89.32;101986.81;5026618;28;20079;-78
2022/05/14 04:12:41;;;;;;;34.40;5.82;;;;;;;11.64;89.26;101982.94;5027599;28;20391;-79
2022/05/14 04:15:07;;;;;;;36.30;5.38;;;;;;;11.67;89.58;101989.88;5025743;28;20033;-78
2022/05/14 04:17:33;;;;;;;33.10;6.05;;;;;;;11.68;89.05;101988.84;5027429;28;20030;-78
2022/05/14 04:19:58;;;;;;;30.00;6.10;;;;;;;11.70;88.86;101989.53;5021205;28;20071;-79
2022/05/14 04:22:23;;;;;;;30.48;5.28;;;;;;;11.71;88.79;101996.63;5021357;28;20088;-79
2022/05/14 04:24:49;;;;;;;30.83;5.70;;;;;;;11.69;88.62;101993.22;5017257;28;20084;-79
2022/05/14 04:27:14;;;;;;;31.77;6.13;;;;;;;11.72;89.04;102003.72;5023933;28;20120;-77
2022/05/14 04:29:39;;;;;;;31.63;5.63;;;;;;;11.74;89.12;102007.06;5026800;28;20040;-78
2022/05/14 04:32:05;;;;;;;36.15;5.90;;;;;;;11.77;88.92;102004.06;5026866;28;20119;-77
2022/05/14 04:34:31;;;;;;;33.78;5.75;;;;;;;11.83;88.90;101998.88;5029764;28;20050;-78
2022/05/14 04:36:56;;;;;;;34.30;5.43;;;;;;;11.91;88.99;102008.03;5032574;28;20030;-79
2022/05/14 04:39:31;;;;;;;35.70;5.75;;;;;;;11.95;88.65;102004.84;5024645;28;20168;-80
2022/05/14 04:42:00;;;;;;;26.48;5.25;;;;;;;11.96;88.06;102006.56;5034401;28;20030;-78
2022/05/14 04:44:27;;;;;;;24.63;5.35;;;;;;;11.98;87.76;102009.94;5033156;28;20032;-79
2022/05/14 04:46:52;;;;;;;28.00;5.30;;;;;;;12.04;88.06;102011.97;5030519;28;20052;-79
2022/05/14 04:49:18;;;;;;;31.95;5.97;;;;;;;12.08;87.79;102017.88;5031397;28;20543;-79
2022/05/14 04:51:43;;;;;;;35.30;5.57;;;;;;;12.13;87.45;102017.41;5031089;28;20025;-79
2022/05/14 04:54:08;;;;;;;25.38;5.13;;;;;;;12.18;87.34;102026.69;5030346;28;20148;-79
2022/05/14 04:56:34;;;;;;;28.15;5.72;;;;;;;12.20;87.17;102023.84;5029837;28;20112;-79
2022/05/14 04:58:59;;;;;;;25.95;5.53;;;;;;;12.25;86.89;102026.91;5031348;28;20103;-79
2022/05/14 05:01:24;;;;;;;29.48;5.65;;;;;;;12.35;87.11;102026.72;5031473;28;20060;-77
2022/05/14 05:03:50;;;;;;;34.60;6.03;;;;;;;12.42;86.73;102023.22;5031155;28;20030;-78
2022/05/14 05:06:18;;;;;;;36.50;5.82;;;;;;;12.53;86.70;102011.25;5027981;28;20384;-79
2022/05/14 05:08:44;;;;;;;22.90;5.50;;;;;;;12.62;86.50;102017.53;5030599;28;20341;-78
2022/05/14 05:11:09;;;;;;;29.63;6.30;;;;;;;12.67;86.07;102012.47;5031559;28;20033;-78
2022/05/14 05:13:35;;;;;;;34.15;5.45;;;;;;;12.80;85.89;102025.50;5031629;28;20029;-77
2022/05/14 05:16:01;;;;;;;24.80;5.35;;;;;;;12.90;85.41;102026.16;5030570;28;20045;-79
2022/05/14 05:18:27;;;;;;;25.92;4.70;;;;;;;13.06;85.11;102041.50;5033580;28;20439;-80
2022/05/14 05:20:54;;;;;;;27.58;5.13;;;;;;;13.15;84.33;102027.00;5034156;28;20029;-79
2022/05/14 05:23:21;;;;;;;28.20;5.55;;;;;;;13.17;83.47;102027.69;5035126;28;20030;-79
2022/05/14 05:25:47;;;;;;;41.15;5.80;;;;;;;13.25;83.14;102026.84;5034236;28;20116;-81
2022/05/14 05:28:12;;;;;;;23.60;5.05;;;;;;;13.29;82.95;102034.44;5033911;28;20105;-79
2022/05/14 05:30:38;;;;;;;25.50;4.93;;;;;;;13.34;82.85;102051.00;5032476;28;20397;-78
2022/05/14 05:33:03;;;;;;;21.70;5.38;;;;;;;13.33;82.14;102038.50;5012992;28;20061;-79
2022/05/14 05:35:29;;;;;;;38.38;5.90;;;;;;;13.51;82.31;102048.28;5030631;28;20072;-80
2022/05/14 05:37:54;;;;;;;26.40;5.35;;;;;;;13.63;81.68;102037.94;5029946;28;20545;-81
2022/05/14 05:40:20;;;;;;;36.28;5.90;;;;;;;13.81;80.94;102049.41;5029160;28;20026;-80
2022/05/14 05:42:45;;;;;;;27.05;4.82;;;;;;;13.98;80.71;102050.16;5031422;28;20029;-79
2022/05/14 05:45:12;;;;;;;31.83;5.57;;;;;;;14.21;79.53;102061.91;5016939;28;20564;-79
2022/05/14 05:47:38;;;;;;;31.55;5.28;;;;;;;14.36;77.20;102062.03;5025058;28;20519;-81
2022/05/14 05:50:03;;;;;;;27.50;5.20;;;;;;;14.41;76.96;102054.22;5024490;28;20033;-79
2022/05/14 05:52:31;;;;;;;28.33;5.90;;;;;;;14.55;77.41;102052.63;5027841;28;20029;-80
2022/05/14 05:57:40;;;;;;;27.45;5.30;;;;;;;14.89;76.65;102054.94;5029782;28;20047;-79
2022/05/14 06:00:10;;;;;;;21.83;5.13;;;;;;;15.26;73.68;102060.59;5029940;28;20280;-80
2022/05/14 06:02:35;;;;;;;21.48;4.68;;;;;;;15.68;73.41;102064.59;5030020;28;20021;-79
2022/05/14 06:05:01;;;;;;;25.10;5.65;;;;;;;16.16;71.71;102065.91;5029071;28;20025;-79
2022/05/14 06:07:26;;;;;;;24.52;5.30;;;;;;;16.71;70.15;102063.63;5015613;28;20038;-78
2022/05/14 06:09:53;;;;;;;24.70;4.53;;;;;;;17.13;67.70;102058.44;5011129;28;20032;-80
2022/05/14 06:12:18;;;;;;;20.95;4.82;;;;;;;17.81;65.66;102069.66;5030782;28;20426;-79
2022/05/14 06:14:44;;;;;;;16.02;4.72;;;;;;;17.90;62.93;102071.16;5030354;28;20108;-78
2022/05/14 06:17:10;;;;;;;20.33;4.75;;;;;;;17.65;62.45;102082.50;5031127;28;20449;-80
2022/05/14 06:19:36;;;;;;;26.02;5.10;;;;;;;17.41;62.92;102080.25;5010308;28;20436;-79
2022/05/14 06:22:03;;;;;;;29.10;6.45;;;;;;;17.13;65.44;102083.75;5011196;28;20030;-79
2022/05/14 06:24:29;;;;;;;23.48;5.22;;;;;;;17.09;66.38;102080.59;5011465;28;20030;-79
2022/05/14 06:26:54;;;;;;;26.02;5.30;;;;;;;17.18;65.08;102080.47;5012278;28;20167;-79
2022/05/14 06:29:19;;;;;;;19.65;4.72;;;;;;;17.33;62.91;102084.78;5012359;28;20152;-79
2022/05/14 06:31:45;;;;;;;26.92;5.97;;;;;;;17.15;63.38;102081.69;5012339;28;20026;-79
2022/05/14 06:34:11;;;;;;;29.27;5.82;;;;;;;16.95;64.48;102077.94;5012088;28;20148;-79
2022/05/14 06:36:37;;;;;;;31.38;5.93;;;;;;;16.81;65.75;102085.97;5027754;28;20032;-79
2022/05/14 06:39:02;;;;;;;25.10;5.07;;;;;;;16.83;66.56;102081.19;5012423;28;20026;-79
2022/05/14 06:41:28;;;;;;;31.00;5.82;;;;;;;16.94;65.05;102079.81;5010797;28;20021;-79
2022/05/14 06:43:53;;;;;;;27.33;6.10;;;;;;;17.17;65.36;102090.50;4994496;28;20478;-78
2022/05/14 06:46:18;;;;;;;31.58;5.78;;;;;;;17.91;64.24;102094.66;5012101;28;20064;-79
2022/05/14 06:48:44;;;;;;;22.35;4.75;;;;;;;19.11;60.65;102097.84;5012117;28;20030;-78
2022/05/14 06:51:14;;;;;;;22.58;5.15;;;;;;;20.51;55.66;102088.41;5010594;28;20037;-79
2022/05/14 06:53:42;;;;;;;27.60;5.03;;;;;;;21.03;53.21;102091.06;5016532;28;20355;-79
2022/05/14 06:56:07;;;;;;;;;;;;;;;21.28;51.46;102091.09;5013671;28;20062;-80
2022/05/14 06:58:35;;;;;;;26.25;5.97;;;;;;;21.62;49.90;102105.38;5014049;28;19944;-78
2022/05/14 07:01:01;;;;;;;26.30;5.95;;;;;;;22.07;49.09;102105.13;5015914;28;20044;-80
2022/05/14 07:08:55;;;;;;;26.13;5.60;;;;;;;23.67;45.26;102118.28;5011993;28;20033;-79
2022/05/14 07:11:21;;;;;;;27.02;5.78;;;;;;;23.99;44.81;102117.09;5010719;28;20017;-79
2022/05/14 07:13:46;;;;;;;21.88;5.28;;;;;;;24.07;44.95;102116.72;5027016;28;20026;-79
2022/05/14 07:16:12;;;;;;;28.83;5.15;;;;;;;24.40;43.21;102109.72;5026437;28;20304;-79
2022/05/14 07:18:37;;;;;;;27.10;5.32;;;;;;;24.44;42.59;102105.41;5011543;28;20034;-78
2022/05/14 07:21:03;;;;;;;32.55;6.22;;;;;;;24.51;41.68;102123.47;5026605;28;20034;-79
2022/05/14 07:23:28;;;;;;;30.77;5.82;;;;;;;24.50;41.54;102126.47;5026478;28;20040;-79
2022/05/14 07:25:53;;;;;;;24.98;5.82;;;;;;;24.46;42.20;102120.63;5011486;28;20025;-79
2022/05/14 07:28:19;;;;;;;34.30;6.63;;;;;;;24.21;42.79;102109.03;5011335;28;20084;-79
2022/05/14 07:30:44;;;;;;;27.48;5.90;;;;;;;25.04;42.03;102107.69;5011311;28;20030;-79
2022/05/14 07:33:10;;;;;;;30.48;6.15;;;;;;;25.75;39.44;102115.44;5026446;28;20121;-79
2022/05/14 07:35:36;;;;;;;36.90;6.32;;;;;;;26.57;37.66;102124.88;5011687;28;20042;-79
2022/05/14 07:38:03;;;;;;;28.27;5.70;;;;;;;27.19;35.98;102124.44;5011422;28;20278;-79
2022/05/14 07:40:32;;;;;;;28.25;5.75;;;;;;;26.61;37.12;102118.56;5009966;28;20028;-79
2022/05/14 07:43:01;;;;;;;29.92;6.28;;;;;;;26.60;37.24;102116.09;5010117;28;20187;-79
2022/05/14 07:45:41;;;;;;;29.42;6.25;;;;;;;26.56;36.52;102120.44;5009741;28;20029;-79
2022/05/14 07:48:09;;;;;;;29.70;6.60;;;;;;;26.27;37.33;102123.38;5009529;28;20029;-80
2022/05/14 07:50:35;;;;;;;30.67;6.43;;;;;;;26.03;37.83;102125.56;5011306;28;20026;-80
2022/05/14 07:53:01;;;;;;;32.58;6.68;;;;;;;26.14;38.67;102129.28;5009653;28;20466;-80
2022/05/14 07:55:26;;;;;;;40.28;6.07;;;;;;;26.33;37.76;102133.41;5009899;28;20529;-80
2022/05/14 07:57:52;;;;;;;34.25;5.95;;;;;;;26.56;35.20;102139.78;5009774;28;20156;-78
2022/05/14 08:00:18;;;;;;;35.35;7.00;;;;;;;26.84;35.36;102139.56;5009578;28;20030;-80
2022/05/14 08:02:44;;;;;;;26.90;5.85;;;;;;;26.84;35.39;102145.06;5009586;28;20486;-79
2022/05/14 08:05:11;;;;;;;38.13;6.70;;;;;;;27.40;34.57;102152.28;5009980;28;20088;-80
2022/05/14 08:07:37;;;;;;;33.80;7.10;;;;;;;26.79;34.85;102142.25;5014958;28;20022;-79
2022/05/14 08:10:04;;;;;;;35.40;6.57;;;;;;;26.36;35.87;102138.41;5014875;28;20033;-79
2022/05/14 08:12:39;;;;;;;36.97;7.00;;;;;;;26.38;35.66;102135.38;5013700;28;20497;-79
2022/05/14 08:15:05;;;;;;;28.88;6.05;;;;;;;26.63;35.75;102138.50;5013476;28;20061;-79
2022/05/14 08:17:31;;;;;;;42.70;6.20;;;;;;;27.48;33.95;102143.50;5015064;28;20026;-79
2022/05/14 08:19:56;;;;;;;33.80;6.68;;;;;;;27.31;34.47;102138.94;5014506;28;20397;-79
2022/05/14 08:25:07;;;;;;;34.35;7.00;;;;;;;27.60;34.50;102130.31;5032264;28;20052;-79
2022/05/14 08:27:44;;;;;;;40.67;7.65;;;;;;;27.55;33.80;102133.03;5031626;28;20036;-80
2022/05/14 08:30:17;;;;;;;36.90;6.30;;;;;;;27.73;33.44;102134.56;5016799;28;20118;-80
2022/05/14 08:32:43;;;;;;;31.58;7.10;;;;;;;27.39;33.21;102134.03;5023616;28;20029;-80
2022/05/14 08:35:09;;;;;;;51.47;7.63;;;;;;;27.26;34.06;102140.81;5020106;28;20060;-80
2022/05/14 08:37:34;;;;;;;43.03;6.70;;;;;;;27.93;33.34;102133.88;5033185;28;20061;-81
2022/05/14 08:40:05;;;;;;;27.23;6.13;;;;;;;28.52;31.68;102128.09;5033086;28;20127;-82
2022/05/14 08:42:33;;;;;;;36.22;6.53;;;;;;;28.45;32.77;102128.34;5014663;28;20456;-81
2022/05/14 08:44:58;;;;;;;29.75;7.05;;;;;;;29.71;29.05;102130.75;5013108;28;20022;-80
2022/05/14 08:47:37;;;;;;;34.70;7.00;;;;;;;29.91;28.91;102131.81;5029781;28;20059;-80
2022/05/14 08:50:05;;;;;;;35.88;6.90;;;;;;;28.98;30.26;102128.19;4997658;28;20072;-82
2022/05/14 08:52:30;;;;;;;36.60;6.65;;;;;;;29.73;28.61;102127.69;5031465;28;20059;-81
2022/05/14 08:55:06;;;;;;;35.57;6.90;;;;;;;29.56;27.23;102129.91;5033681;28;20033;-81
2022/05/14 08:57:50;;;;;;;53.53;7.22;;;;;;;28.32;29.63;102128.81;5032750;28;20040;-80
2022/05/14 09:00:17;;;;;;;44.40;8.05;;;;;;;29.07;28.65;102134.91;5035348;28;20029;-82
2022/05/14 09:02:44;;;;;;;;;;;;;;;29.41;28.85;102128.81;5032165;28;20042;-81
2022/05/14 09:05:16;;;;;;;42.53;6.80;;;;;;;29.15;29.86;102124.34;5032863;28;19964;-80
2022/05/14 09:07:43;;;;;;;44.03;6.65;;;;;;;29.65;28.83;102123.56;5031236;28;20026;-81
2022/05/14 09:10:18;;;;;;;;;;;;;;;29.81;28.29;102126.31;5008115;28;20381;-80
2022/05/14 09:13:00;;;;;;;46.92;7.80;;;;;;;27.04;32.78;102129.78;5029002;28;19918;-81
2022/05/14 09:15:28;;;;;;;38.78;7.88;;;;;;;27.27;32.79;102126.72;5040059;28;20174;-80
2022/05/14 09:18:10;;;;;;;39.08;7.97;;;;;;;27.82;31.98;102121.91;5027057;28;20032;-80
2022/05/14 09:20:42;;;;;;;50.85;8.52;;;;;;;27.42;32.11;102128.78;5031041;28;20072;-79
2022/05/14 09:23:07;;;;;;;35.50;7.28;;;;;;;27.18;32.18;102131.09;5027746;28;20172;-80
2022/05/14 09:25:38;;;;;;;47.25;7.47;;;;;;;27.11;33.62;102130.41;5013389;28;20117;-80
2022/05/14 09:28:09;;;;;;;41.70;6.90;;;;;;;27.23;33.77;102133.88;4997152;28;20040;-82
2022/05/14 09:30:38;;;;;;;46.58;7.28;;;;;;;26.96;34.09;102133.03;5014533;28;20036;-80
2022/05/14 09:33:05;;;;;;;49.45;7.65;;;;;;;26.82;33.49;102130.69;5013519;28;20029;-81
2022/05/14 09:35:34;;;;;;;38.50;8.02;;;;;;;25.62;35.31;102128.53;5030828;28;20045;-80
2022/05/14 09:38:11;;;;;;;45.58;8.25;;;;;;;24.78;38.92;102128.41;5030564;28;20124;-81
2022/05/14 09:40:37;;;;;;;53.00;8.25;;;;;;;25.08;38.22;102119.84;5033252;28;20057;-80
2022/05/14 09:43:16;;;;;;;39.60;7.28;;;;;;;25.09;39.06;102127.06;5033105;28;20083;-81
2022/05/14 09:45:55;;;;;;;47.75;8.55;;;;;;;25.65;37.37;102131.88;5033445;28;20052;-81
2022/05/14 09:48:22;;;;;;;36.28;7.75;;;;;;;26.34;35.32;102129.56;5031260;28;20116;-81
2022/05/14 09:50:56;;;;;;;40.03;7.07;;;;;;;27.20;34.81;102134.41;5033103;28;20033;-81
2022/05/14 09:53:39;;;;;;;39.72;7.40;;;;;;;26.93;34.17;102131.63;5030908;28;20029;-82
2022/05/14 09:56:23;;;;;;;34.38;7.72;;;;;;;26.12;36.26;102128.69;5010658;28;20136;-81
2022/05/14 09:59:02;;;;;;;38.70;7.30;;;;;;;25.44;38.10;102131.53;5028501;28;20091;-82
2022/05/14 10:01:33;;;;;;;48.25;8.15;;;;;;;24.74;39.17;102129.97;5010141;28;20033;-83
2022/05/14 10:04:04;;;;;;;44.55;7.82;;;;;;;24.62;38.73;102124.53;5033828;28;20029;-82
2022/05/14 10:06:45;;;;;;;40.53;8.20;;;;;;;25.07;39.44;102133.91;5034103;28;20110;-82
2022/05/14 10:09:27;;;;;;;44.58;7.38;;;;;;;26.43;36.63;102128.00;5023920;28;20067;-82
2022/05/14 10:12:03;;;;;;;44.90;8.60;;;;;;;25.75;37.45;102138.38;5036240;28;20037;-78
2022/05/14 10:14:57;;;;;;;44.55;8.18;;;;;;;25.45;37.92;102144.22;5033911;28;20060;-81
2022/05/14 10:17:51;;;;;;;46.45;8.52;;;;;;;25.70;37.58;102130.03;5018989;28;20068;-82
2022/05/14 10:20:25;;;;;;;45.65;8.48;;;;;;;26.15;36.74;102126.28;5026079;28;20387;-81
2022/05/14 10:29:41;;;;;;;38.15;7.88;;;;;;;26.32;36.42;102151.03;5027114;28;20057;-80
2022/05/14 10:32:09;;;;;;;44.38;8.05;;;;;;;26.67;35.55;102138.78;4997728;28;20409;-78
2022/05/14 10:34:41;;;;;;;43.38;7.65;;;;;;;26.51;35.34;102146.03;5039143;28;20059;-80
2022/05/14 10:37:31;;;;;;;43.25;7.70;;;;;;;27.42;34.11;102144.56;5023950;28;20034;-79
2022/05/14 10:40:10;;;;;;;40.85;8.25;;;;;;;27.69;33.70;102138.94;5020157;28;20120;-80
2022/05/14 10:42:41;;;;;;;48.35;7.30;;;;;;;28.05;33.60;102148.34;5029509;28;20030;-80
2022/05/14 10:45:22;;;;;;;39.72;7.15;;;;;;;28.29;31.93;102145.13;5024988;28;20030;-78
2022/05/14 10:47:59;;;;;;;36.17;7.85;;;;;;;27.73;32.11;102148.38;5026450;28;20021;-80
2022/05/14 10:50:24;;;;;;;42.80;7.90;;;;;;;28.01;31.00;102147.19;5041036;28;20025;-81
2022/05/14 10:52:50;;;;;;;34.40;6.95;;;;;;;28.00;30.31;102157.44;5031531;28;20385;-81
2022/05/14 10:55:26;;;;;;;31.40;7.05;;;;;;;28.60;30.07;102162.75;5032093;28;20664;-81
2022/05/14 10:57:58;;;;;;;37.67;8.10;;;;;;;28.70;30.39;102159.16;5031037;28;20067;-81
2022/05/14 11:00:29;;;;;;;39.67;6.35;;;;;;;28.97;29.89;102151.47;5030659;28;20474;-80
2022/05/14 11:03:09;;;;;;;42.20;7.82;;;;;;;28.93;29.53;102153.13;5031631;28;20104;-81
2022/05/14 11:05:48;;;;;;;27.48;5.70;;;;;;;29.06;28.23;102163.72;5017294;28;20021;-81
2022/05/14 11:08:15;;;;;;;33.00;6.65;;;;;;;29.40;28.30;102163.19;5035551;28;20509;-82
2022/05/14 11:10:41;;;;;;;37.42;6.68;;;;;;;29.35;28.32;102165.13;5031235;28;20033;-81
2022/05/14 11:13:13;;;;;;;39.22;6.85;;;;;;;29.38;27.58;102159.84;5032208;28;20040;-81
2022/05/14 11:15:39;;;;;;;38.05;7.38;;;;;;;28.97;28.48;102159.78;5030432;28;20438;-81
2022/05/14 11:18:10;;;;;;;37.73;6.70;;;;;;;28.94;28.21;102153.94;5029876;28;20098;-80
2022/05/14 11:20:36;;;;;;;40.88;6.97;;;;;;;28.48;28.58;102165.72;5030134;28;20405;-81
2022/05/14 11:23:11;;;;;;;45.33;6.28;;;;;;;28.49;29.12;102164.66;5029537;28;20022;-80
2022/05/14 11:25:37;;;;;;;30.42;6.38;;;;;;;28.43;30.01;102166.53;5029931;28;20111;-80
2022/05/14 11:28:17;;;;;;;38.60;6.22;;;;;;;28.79;29.61;102165.84;5031241;28;20445;-80
2022/05/14 11:30:48;;;;;;;51.45;8.30;;;;;;;28.46;29.02;102170.72;5030105;28;20021;-81
2022/05/14 11:33:22;;;;;;;38.10;6.97;;;;;;;28.35;28.51;102160.66;5030445;28;20021;-81
2022/05/14 11:35:49;;;;;;;38.60;6.82;;;;;;;28.32;28.47;102173.13;5031125;28;20045;-81
2022/05/14 11:38:26;;;;;;;38.63;6.72;;;;;;;27.99;29.22;102166.84;5029907;28;20025;-82
2022/05/14 11:41:09;;;;;;;36.35;6.35;;;;;;;27.88;28.96;102161.50;5031315;28;20029;-80
2022/05/14 11:43:48;;;;;;;37.70;6.40;;;;;;;27.84;29.14;102163.16;5029775;28;20079;-82
2022/05/14 11:46:43;;;;;;;30.00;5.85;;;;;;;28.14;28.61;102159.72;5029790;28;20017;-81